createdAt,value
2023-02-08T00:00:36.407Z,17.17
2023-02-08T00:03:02.904Z,15.50
2023-02-08T00:05:29.240Z,16.42
2023-02-08T00:07:55.556Z,16.60
2023-02-08T00:10:21.933Z,16.63
2023-02-08T00:12:48.357Z,15.52
2023-02-08T00:15:14.724Z,16.58
2023-02-08T00:17:41.153Z,16.35
2023-02-08T00:20:07.664Z,15.55
2023-02-08T00:22:34.064Z,16.10
2023-02-08T00:25:00.435Z,15.95
2023-02-08T00:27:27.083Z,15.60
2023-02-08T00:29:53.440Z,16.77
2023-02-08T00:32:19.948Z,15.80
2023-02-08T00:34:46.314Z,16.70
2023-02-08T00:37:12.660Z,16.83
2023-02-08T00:39:39.106Z,16.00
2023-02-08T00:42:05.511Z,17.27
2023-02-08T00:44:31.908Z,15.95
2023-02-08T00:46:58.252Z,16.60
2023-02-08T00:49:24.874Z,15.63
2023-02-08T00:51:51.212Z,16.40
2023-02-08T00:54:17.853Z,17.08
2023-02-08T00:56:44.223Z,16.13
2023-02-08T00:59:10.639Z,16.38
2023-02-08T01:01:36.978Z,16.95
2023-02-08T01:04:03.375Z,16.58
2023-02-08T01:06:29.813Z,16.67
2023-02-08T01:08:56.209Z,16.77
2023-02-08T01:11:22.720Z,16.45
2023-02-08T01:13:49.220Z,15.35
2023-02-08T01:16:15.706Z,16.05
2023-02-08T01:18:42.127Z,16.25
2023-02-08T01:21:08.583Z,16.58
2023-02-08T01:23:35.011Z,16.88
2023-02-08T01:26:01.567Z,16.17
2023-02-08T01:28:27.978Z,17.17
2023-02-08T01:30:54.432Z,16.10
2023-02-08T01:33:20.955Z,15.30
2023-02-08T01:35:47.232Z,16.38
2023-02-08T01:38:13.677Z,17.05
2023-02-08T01:40:40.662Z,16.35
2023-02-08T01:43:07.306Z,17.48
2023-02-08T01:45:33.696Z,15.65
2023-02-08T01:48:00.128Z,15.45
2023-02-08T01:50:26.509Z,15.80
2023-02-08T01:52:53.119Z,15.32
2023-02-08T01:55:19.505Z,15.98
2023-02-08T01:57:45.917Z,16.63
2023-02-08T02:00:12.514Z,16.75
2023-02-08T02:02:39.001Z,15.80
2023-02-08T02:05:06.212Z,17.00
2023-02-08T02:07:33.442Z,16.90
2023-02-08T02:09:59.980Z,15.32
2023-02-08T02:12:29.986Z,16.63
2023-02-08T02:14:56.485Z,16.98
2023-02-08T02:17:23.505Z,15.73
2023-02-08T02:19:50.037Z,16.15
2023-02-08T02:22:16.534Z,16.73
2023-02-08T02:24:45.235Z,16.58
2023-02-08T02:27:17.793Z,15.65
2023-02-08T02:29:44.465Z,16.38
2023-02-08T02:32:11.092Z,15.73
2023-02-08T02:34:37.546Z,16.33
2023-02-08T02:37:03.972Z,15.38
2023-02-08T02:39:30.343Z,15.45
2023-02-08T02:41:56.712Z,17.10
2023-02-08T02:44:23.748Z,16.20
2023-02-08T02:46:50.259Z,15.98
2023-02-08T02:49:17.619Z,16.52
2023-02-08T02:51:44.002Z,16.35
2023-02-08T02:54:11.318Z,15.95
2023-02-08T02:56:37.885Z,16.33
2023-02-08T02:59:04.326Z,15.45
2023-02-08T03:01:30.867Z,16.50
2023-02-08T03:03:57.295Z,17.05
2023-02-08T03:06:23.691Z,16.70
2023-02-08T03:08:50.285Z,15.70
2023-02-08T03:11:16.706Z,15.70
2023-02-08T03:13:43.100Z,16.25
2023-02-08T03:16:10.889Z,15.80
2023-02-08T03:18:37.220Z,17.15
2023-02-08T03:21:03.860Z,15.50
2023-02-08T03:23:30.445Z,15.95
2023-02-08T03:25:57.099Z,16.00
2023-02-08T03:28:23.531Z,16.40
2023-02-08T03:30:50.251Z,15.82
2023-02-08T03:33:17.127Z,16.58
2023-02-08T03:35:43.473Z,16.23
2023-02-08T03:38:10.027Z,16.17
2023-02-08T03:40:36.468Z,17.80
2023-02-08T03:43:03.044Z,17.35
2023-02-08T03:45:29.342Z,16.80
2023-02-08T03:47:56.144Z,16.42
2023-02-08T03:50:22.566Z,17.83
2023-02-08T03:52:48.947Z,18.70
2023-02-08T03:55:15.363Z,17.15
2023-02-08T03:57:41.792Z,17.98
2023-02-08T04:00:08.303Z,16.80
2023-02-08T04:02:34.664Z,15.93
2023-02-08T04:05:01.209Z,16.63
2023-02-08T04:07:27.722Z,17.23
2023-02-08T04:09:54.273Z,17.38
2023-02-08T04:12:20.602Z,16.85
2023-02-08T04:14:46.975Z,18.42
2023-02-08T04:17:13.419Z,17.60
2023-02-08T04:19:39.835Z,16.95
2023-02-08T04:22:06.263Z,17.58
2023-02-08T04:24:32.724Z,17.60
2023-02-08T04:26:59.076Z,17.42
2023-02-08T04:29:25.583Z,18.67
2023-02-08T04:31:52.104Z,17.73
2023-02-08T04:34:18.903Z,16.98
2023-02-08T04:36:45.271Z,18.23
2023-02-08T04:39:11.651Z,16.25
2023-02-08T04:41:38.076Z,17.55
2023-02-08T04:44:04.497Z,18.13
2023-02-08T04:46:31.201Z,18.73
2023-02-08T04:48:59.008Z,17.70
2023-02-08T04:51:25.528Z,17.45
2023-02-08T04:53:51.966Z,18.17
2023-02-08T04:56:18.410Z,18.40
2023-02-08T04:58:44.793Z,18.35
2023-02-08T05:01:11.194Z,19.13
2023-02-08T05:03:38.293Z,18.13
2023-02-08T05:06:04.778Z,17.85
2023-02-08T05:08:31.412Z,19.17
2023-02-08T05:10:57.807Z,19.75
2023-02-08T05:13:24.245Z,19.13
2023-02-08T05:15:50.844Z,18.67
2023-02-08T05:18:17.604Z,18.98
2023-02-08T05:20:44.038Z,18.00
2023-02-08T05:23:10.697Z,19.75
2023-02-08T05:25:37.057Z,18.52
2023-02-08T05:28:03.734Z,18.27
2023-02-08T05:30:30.129Z,17.75
2023-02-08T05:32:56.819Z,18.75
2023-02-08T05:35:23.404Z,19.20
2023-02-08T05:37:49.966Z,18.17
2023-02-08T05:40:16.404Z,19.55
2023-02-08T05:42:42.993Z,18.55
2023-02-08T05:45:09.414Z,19.23
2023-02-08T05:47:35.763Z,19.33
2023-02-08T05:50:02.114Z,19.23
2023-02-08T05:52:28.583Z,19.20
2023-02-08T05:54:55.382Z,19.77
2023-02-08T05:57:21.744Z,19.98
2023-02-08T05:59:48.136Z,20.02
2023-02-08T06:02:14.501Z,20.70
2023-02-08T06:04:41.020Z,19.98
2023-02-08T06:07:07.395Z,19.95
2023-02-08T06:09:34.073Z,21.02
2023-02-08T06:12:00.833Z,20.17
2023-02-08T06:14:28.007Z,20.40
2023-02-08T06:16:54.596Z,20.35
2023-02-08T06:19:21.301Z,20.83
2023-02-08T06:21:47.651Z,20.58
2023-02-08T06:24:14.011Z,19.95
2023-02-08T06:26:40.519Z,20.95
2023-02-08T06:29:07.311Z,21.75
2023-02-08T06:31:33.720Z,22.10
2023-02-08T06:34:00.367Z,21.25
2023-02-08T06:36:27.362Z,21.90
2023-02-08T06:38:53.700Z,21.88
2023-02-08T06:41:20.112Z,22.45
2023-02-08T06:43:46.724Z,21.38
2023-02-08T06:46:13.532Z,23.40
2023-02-08T06:48:40.548Z,21.98
2023-02-08T06:51:06.918Z,21.92
2023-02-08T06:53:33.304Z,24.77
2023-02-08T06:56:00.176Z,21.42
2023-02-08T06:58:27.400Z,23.33
2023-02-08T07:00:53.828Z,21.38
2023-02-08T07:03:20.382Z,22.27
2023-02-08T07:05:59.016Z,21.92
2023-02-08T07:08:30.469Z,21.45
2023-02-08T07:10:57.785Z,23.30
2023-02-08T07:13:24.185Z,22.63
2023-02-08T07:15:50.586Z,22.48
2023-02-08T07:18:17.483Z,21.88
2023-02-08T07:20:44.255Z,21.73
2023-02-08T07:23:11.081Z,23.27
2023-02-08T07:25:37.487Z,22.58
2023-02-08T07:28:03.924Z,23.92
2023-02-08T07:30:30.577Z,23.10
2023-02-08T07:32:57.382Z,22.88
2023-02-08T07:35:24.262Z,22.92
2023-02-08T07:37:50.653Z,23.15
2023-02-08T07:40:17.012Z,22.77
2023-02-08T07:42:43.383Z,21.95
2023-02-08T07:45:09.662Z,24.30
2023-02-08T07:47:35.959Z,22.05
2023-02-08T07:50:02.862Z,22.25
2023-02-08T07:52:29.394Z,23.45
2023-02-08T07:54:55.944Z,22.58
2023-02-08T07:57:22.479Z,22.48
2023-02-08T07:59:48.950Z,22.70
2023-02-08T08:02:15.273Z,22.98
2023-02-08T08:04:41.793Z,22.83
2023-02-08T08:07:08.460Z,24.13
2023-02-08T08:09:34.913Z,23.20
2023-02-08T08:12:01.432Z,22.92
2023-02-08T08:14:27.802Z,23.38
2023-02-08T08:16:54.240Z,25.27
2023-02-08T08:19:20.861Z,21.67
2023-02-08T08:21:47.193Z,23.90
2023-02-08T08:24:13.571Z,23.77
2023-02-08T08:26:40.089Z,24.27
2023-02-08T08:29:06.701Z,23.50
2023-02-08T08:31:33.489Z,23.15
2023-02-08T08:33:59.864Z,24.13
2023-02-08T08:36:26.222Z,23.60
2023-02-08T08:38:52.535Z,24.58
2023-02-08T08:41:19.019Z,24.05
2023-02-08T08:43:45.625Z,23.73
2023-02-08T08:46:12.198Z,25.38
2023-02-08T08:48:38.696Z,24.05
2023-02-08T08:51:05.397Z,25.30
2023-02-08T08:53:31.754Z,23.77
2023-02-08T08:55:58.162Z,24.48
2023-02-08T08:58:24.548Z,23.95
2023-02-08T09:00:51.193Z,24.98
2023-02-08T09:03:17.700Z,25.67
2023-02-08T09:05:44.078Z,25.35
2023-02-08T09:08:10.482Z,26.10
2023-02-08T09:10:36.886Z,27.45
2023-02-08T09:13:03.834Z,27.05
2023-02-08T09:15:30.329Z,28.17
2023-02-08T09:17:57.477Z,30.25
2023-02-08T09:20:24.118Z,31.48
2023-02-08T09:22:50.992Z,31.40
2023-02-08T09:25:17.275Z,30.40
2023-02-08T09:27:43.716Z,31.23
2023-02-08T09:30:10.092Z,33.08
2023-02-08T09:32:36.593Z,35.90
2023-02-08T09:35:03.417Z,35.72
2023-02-08T09:37:29.872Z,34.47
2023-02-08T09:39:56.244Z,40.10
2023-02-08T09:42:22.624Z,42.70
2023-02-08T09:44:49.279Z,47.17
2023-02-08T09:47:15.985Z,46.80
2023-02-08T09:49:42.649Z,48.42
2023-02-08T09:52:09.048Z,48.83
2023-02-08T09:54:35.424Z,49.97
2023-02-08T09:57:01.838Z,49.97
2023-02-08T09:59:28.178Z,50.13
2023-02-08T10:01:54.905Z,51.15
2023-02-08T10:04:21.477Z,54.50
2023-02-08T10:06:49.994Z,55.30
2023-02-08T10:09:17.514Z,57.03
2023-02-08T10:11:44.324Z,57.00
2023-02-08T10:14:10.914Z,53.88
2023-02-08T10:16:37.223Z,55.40
2023-02-08T10:19:03.613Z,57.08
2023-02-08T10:21:29.987Z,56.60
2023-02-08T10:23:56.560Z,56.38
2023-02-08T10:26:22.878Z,58.72
2023-02-08T10:28:51.364Z,55.80
2023-02-08T10:31:19.207Z,55.90
2023-02-08T10:33:45.824Z,57.00
2023-02-08T10:36:12.258Z,56.83
2023-02-08T10:38:46.483Z,53.58
2023-02-08T10:41:13.916Z,54.13
2023-02-08T10:43:40.747Z,55.92
2023-02-08T10:46:07.450Z,56.25
2023-02-08T10:48:34.420Z,53.10
2023-02-08T10:51:01.179Z,53.50
2023-02-08T10:53:27.887Z,51.90
2023-02-08T10:55:54.428Z,50.47
2023-02-08T10:58:20.911Z,50.13
2023-02-08T11:00:47.673Z,50.42
2023-02-08T11:03:14.696Z,49.35
2023-02-08T11:05:41.630Z,50.47
2023-02-08T11:08:08.137Z,49.92
2023-02-08T11:10:34.510Z,48.45
2023-02-08T11:13:00.853Z,49.17
2023-02-08T11:15:27.343Z,48.53
2023-02-08T11:17:53.701Z,48.78
2023-02-08T11:20:20.329Z,46.50
2023-02-08T11:22:46.883Z,48.42
2023-02-08T11:25:13.427Z,46.10
2023-02-08T11:27:39.969Z,47.20
2023-02-08T11:30:06.590Z,45.70
2023-02-08T11:32:33.317Z,45.08
2023-02-08T11:34:59.914Z,45.08
2023-02-08T11:37:26.965Z,43.97
2023-02-08T11:39:53.314Z,44.42
2023-02-08T11:42:19.739Z,42.13
2023-02-08T11:44:46.088Z,43.45
2023-02-08T11:47:12.682Z,42.13
2023-02-08T11:49:39.327Z,42.78
2023-02-08T11:52:05.707Z,40.92
2023-02-08T11:54:32.097Z,41.70
2023-02-08T11:56:59.071Z,41.92
2023-02-08T11:59:25.449Z,39.58
2023-02-08T12:01:52.047Z,39.75
2023-02-08T12:04:18.419Z,38.97
2023-02-08T12:06:44.761Z,39.22
2023-02-08T12:09:11.761Z,38.60
2023-02-08T12:11:38.532Z,38.65
2023-02-08T12:14:04.992Z,36.88
2023-02-08T12:16:32.715Z,38.88
2023-02-08T12:18:59.545Z,38.50
2023-02-08T12:21:25.940Z,36.42
2023-02-08T12:23:52.348Z,37.65
2023-02-08T12:26:19.082Z,37.90
2023-02-08T12:28:45.876Z,36.58
2023-02-08T12:31:12.461Z,35.22
2023-02-08T12:33:39.157Z,36.97
2023-02-08T12:36:05.894Z,35.70
2023-02-08T12:38:32.412Z,36.13
2023-02-08T12:40:58.779Z,35.47
2023-02-08T12:43:26.015Z,34.97
2023-02-08T12:45:52.793Z,35.45
2023-02-08T12:48:19.347Z,33.58
2023-02-08T12:50:45.716Z,34.25
2023-02-08T12:53:12.308Z,33.97
2023-02-08T12:55:38.653Z,33.67
2023-02-08T12:58:05.144Z,32.97
2023-02-08T13:00:31.549Z,32.50
2023-02-08T13:02:58.639Z,33.42
2023-02-08T13:05:25.130Z,32.88
2023-02-08T13:07:51.485Z,32.67
2023-02-08T13:10:17.797Z,31.63
2023-02-08T13:12:44.265Z,32.40
2023-02-08T13:15:18.500Z,30.98
2023-02-08T13:17:51.568Z,32.35
2023-02-08T13:20:18.517Z,30.90
2023-02-08T13:22:45.287Z,29.95
2023-02-08T13:25:11.741Z,32.97
2023-02-08T13:27:38.081Z,31.02
2023-02-08T13:30:04.467Z,31.95
2023-02-08T13:32:31.025Z,31.70
2023-02-08T13:34:57.878Z,30.80
2023-02-08T13:37:25.674Z,30.50
2023-02-08T13:39:53.549Z,30.90
2023-02-08T13:42:19.907Z,29.60
2023-02-08T13:44:46.242Z,30.35
2023-02-08T13:47:12.852Z,28.73
2023-02-08T13:49:39.363Z,30.15
2023-02-08T13:52:05.982Z,27.50
2023-02-08T13:54:32.481Z,28.15
2023-02-08T13:56:59.166Z,27.90
2023-02-08T13:59:25.472Z,29.50
2023-02-08T14:01:52.061Z,29.85
2023-02-08T14:04:19.053Z,29.17
2023-02-08T14:06:45.744Z,28.23
2023-02-08T14:09:12.306Z,27.77
2023-02-08T14:11:38.867Z,27.60
2023-02-08T14:14:05.214Z,27.50
2023-02-08T14:16:31.833Z,26.60
2023-02-08T14:18:58.206Z,26.88
2023-02-08T14:21:24.865Z,27.70
2023-02-08T14:23:51.386Z,26.33
2023-02-08T14:26:17.786Z,27.73
2023-02-08T14:28:44.198Z,26.48
2023-02-08T14:31:10.573Z,27.00
2023-02-08T14:33:37.310Z,27.70
2023-02-08T14:36:03.981Z,25.92
2023-02-08T14:38:30.286Z,25.40
2023-02-08T14:40:56.946Z,26.48
2023-02-08T14:43:23.745Z,27.13
2023-02-08T14:45:50.480Z,26.23
2023-02-08T14:48:17.177Z,25.60
2023-02-08T14:50:43.493Z,26.35
2023-02-08T14:53:10.095Z,25.63
2023-02-08T14:55:36.823Z,24.95
2023-02-08T14:58:03.290Z,25.23
2023-02-08T15:00:29.772Z,24.35
2023-02-08T15:02:56.421Z,25.20
2023-02-08T15:05:23.445Z,24.33
2023-02-08T15:07:49.789Z,25.30
2023-02-08T15:10:16.853Z,24.48
2023-02-08T15:12:43.438Z,24.92
2023-02-08T15:15:09.811Z,24.08
2023-02-08T15:17:36.118Z,25.33
2023-02-08T15:20:02.546Z,24.08
2023-02-08T15:22:28.925Z,24.20
2023-02-08T15:24:55.248Z,25.20
2023-02-08T15:27:21.786Z,24.80
2023-02-08T15:29:48.966Z,23.70
2023-02-08T15:32:15.631Z,23.45
2023-02-08T15:34:42.069Z,23.83
2023-02-08T15:37:08.999Z,23.58
2023-02-08T15:39:35.349Z,23.75
2023-02-08T15:42:01.816Z,24.60
2023-02-08T15:44:28.205Z,23.05
2023-02-08T15:49:19.934Z,21.77
2023-02-08T15:51:46.851Z,23.83
2023-02-08T15:54:13.168Z,21.77
2023-02-08T15:56:42.282Z,23.45
2023-02-08T15:59:08.964Z,23.08
2023-02-08T16:01:35.462Z,22.60
2023-02-08T16:04:02.236Z,23.83
2023-02-08T16:06:29.044Z,23.90
2023-02-08T16:08:55.655Z,22.80
2023-02-08T16:11:22.526Z,23.25
2023-02-08T16:13:49.435Z,22.52
2023-02-08T16:16:15.800Z,22.42
2023-02-08T16:18:42.261Z,22.40
2023-02-08T16:21:09.128Z,22.73
2023-02-08T16:23:35.600Z,21.92
2023-02-08T16:26:02.061Z,23.48
2023-02-08T16:28:28.734Z,22.38
2023-02-08T16:30:55.436Z,22.38
2023-02-08T16:33:21.759Z,23.17
2023-02-08T16:35:48.083Z,22.95
2023-02-08T16:38:14.447Z,21.95
2023-02-08T16:40:41.390Z,23.25
2023-02-08T16:43:07.985Z,22.58
2023-02-08T16:45:34.358Z,21.58
2023-02-08T16:48:13.448Z,22.77
2023-02-08T16:50:45.128Z,22.23
2023-02-08T16:53:11.685Z,22.33
2023-02-08T16:55:38.072Z,21.98
2023-02-08T16:58:04.528Z,22.45
2023-02-08T17:00:31.295Z,21.65
2023-02-08T17:02:57.668Z,22.13
2023-02-08T17:05:24.084Z,20.42
2023-02-08T17:07:50.466Z,22.92
2023-02-08T17:10:17.175Z,21.27
2023-02-08T17:12:43.482Z,23.17
2023-02-08T17:15:10.051Z,22.25
2023-02-08T17:17:36.428Z,22.02
2023-02-08T17:20:02.769Z,21.95
2023-02-08T17:22:29.268Z,21.63
2023-02-08T17:24:55.608Z,22.23
2023-02-08T17:27:22.034Z,21.58
2023-02-08T17:29:49.382Z,22.52
2023-02-08T17:32:16.278Z,21.25
2023-02-08T17:34:42.592Z,22.60
2023-02-08T17:37:09.477Z,22.58
2023-02-08T17:39:35.766Z,22.73
2023-02-08T17:42:02.122Z,21.85
2023-02-08T17:44:28.607Z,22.08
2023-02-08T17:46:54.944Z,21.17
2023-02-08T17:49:21.269Z,22.70
2023-02-08T17:51:47.685Z,22.80
2023-02-08T17:54:14.183Z,21.40
2023-02-08T17:56:41.305Z,22.17
2023-02-08T17:59:07.789Z,21.42
2023-02-08T18:01:34.333Z,21.42
2023-02-08T18:04:00.789Z,21.60
2023-02-08T18:06:27.399Z,22.35
2023-02-08T18:08:54.382Z,20.65
2023-02-08T18:11:20.936Z,22.38
2023-02-08T18:13:47.273Z,21.80
2023-02-08T18:16:13.784Z,21.80
2023-02-08T18:18:40.378Z,21.60
2023-02-08T18:21:07.911Z,20.42
2023-02-08T18:23:34.278Z,20.98
2023-02-08T18:26:00.924Z,22.10
2023-02-08T18:28:28.007Z,22.45
2023-02-08T18:30:54.420Z,22.42
2023-02-08T18:33:21.399Z,21.65
2023-02-08T18:35:47.760Z,21.90
2023-02-08T18:38:14.138Z,21.10
2023-02-08T18:40:40.607Z,20.25
2023-02-08T18:43:07.040Z,20.80
2023-02-08T18:45:33.850Z,20.52
2023-02-08T18:48:00.936Z,22.05
2023-02-08T18:50:27.379Z,21.85
2023-02-08T18:52:53.829Z,20.70
2023-02-08T18:55:20.172Z,20.52
2023-02-08T18:57:46.581Z,21.83
2023-02-08T19:00:12.930Z,21.35
2023-02-08T19:02:39.820Z,21.77
2023-02-08T19:05:06.281Z,19.67
2023-02-08T19:07:33.010Z,20.00
2023-02-08T19:09:59.377Z,20.60
2023-02-08T19:12:25.748Z,21.35
2023-02-08T19:14:52.130Z,21.15
2023-02-08T19:17:18.542Z,20.17
2023-02-08T19:19:45.114Z,20.65
2023-02-08T19:22:11.580Z,19.55
2023-02-08T19:24:37.968Z,20.17
2023-02-08T19:27:04.359Z,19.75
2023-02-08T19:29:30.754Z,19.70
2023-02-08T19:31:58.326Z,19.40
2023-02-08T19:34:25.512Z,19.65
2023-02-08T19:36:52.196Z,19.98
2023-02-08T19:39:18.701Z,20.00
2023-02-08T19:41:45.167Z,20.90
2023-02-08T19:44:11.567Z,20.33
2023-02-08T19:46:38.353Z,20.67
2023-02-08T19:49:05.159Z,21.20
2023-02-08T19:51:31.624Z,19.17
2023-02-08T19:53:58.040Z,19.63
2023-02-08T19:56:24.498Z,20.63
2023-02-08T19:58:51.157Z,21.15
2023-02-08T20:01:17.816Z,19.38
2023-02-08T20:03:44.337Z,19.95
2023-02-08T20:06:10.915Z,19.45
2023-02-08T20:08:37.552Z,20.30
2023-02-08T20:11:04.095Z,19.55
2023-02-08T20:13:30.430Z,19.52
2023-02-08T20:15:56.831Z,18.98
2023-02-08T20:18:23.570Z,19.13
2023-02-08T20:20:49.931Z,18.80
2023-02-08T20:23:22.533Z,19.20
2023-02-08T20:25:49.736Z,19.85
2023-02-08T20:28:16.506Z,18.88
2023-02-08T20:30:43.212Z,19.45
2023-02-08T20:33:09.624Z,19.90
2023-02-08T20:35:36.061Z,18.55
2023-02-08T20:38:02.707Z,18.00
2023-02-08T20:40:29.113Z,18.25
2023-02-08T20:42:56.140Z,17.80
2023-02-08T20:45:22.616Z,18.00
2023-02-08T20:47:49.268Z,18.80
2023-02-08T20:50:19.221Z,18.48
2023-02-08T20:55:13.065Z,18.35
2023-02-08T20:57:39.692Z,18.05
2023-02-08T21:00:06.367Z,17.45
2023-02-08T21:02:33.164Z,17.55
2023-02-08T21:04:59.522Z,17.27
2023-02-08T21:07:25.923Z,18.55
2023-02-08T21:09:52.496Z,18.52
2023-02-08T21:12:19.426Z,16.17
2023-02-08T21:14:46.250Z,18.00
2023-02-08T21:17:12.880Z,17.52
2023-02-08T21:19:39.828Z,18.08
2023-02-08T21:22:06.199Z,17.58
2023-02-08T21:24:32.611Z,18.55
2023-02-08T21:26:59.286Z,17.95
2023-02-08T21:29:25.702Z,16.50
2023-02-08T21:31:52.306Z,17.70
2023-02-08T21:34:19.583Z,16.50
2023-02-08T21:36:46.000Z,17.27
2023-02-08T21:39:12.417Z,16.85
2023-02-08T21:41:39.158Z,16.85
2023-02-08T21:44:05.571Z,16.38
2023-02-08T21:46:32.251Z,16.98
2023-02-08T21:48:58.756Z,17.30
2023-02-08T21:51:25.087Z,16.48
2023-02-08T21:53:51.782Z,17.48
2023-02-08T21:56:18.167Z,15.77
2023-02-08T21:58:44.607Z,16.75
2023-02-08T22:01:11.344Z,16.55
2023-02-08T22:03:38.511Z,17.60
2023-02-08T22:06:05.071Z,16.88
2023-02-08T22:08:31.574Z,16.20
2023-02-08T22:10:58.789Z,16.55
2023-02-08T22:13:25.344Z,17.00
2023-02-08T22:15:51.758Z,15.85
2023-02-08T22:18:18.168Z,16.40
2023-02-08T22:20:44.921Z,17.13
2023-02-08T22:23:11.686Z,16.02
2023-02-08T22:25:38.071Z,15.88
2023-02-08T22:28:04.720Z,16.42
2023-02-08T22:30:31.179Z,15.35
2023-02-08T22:32:58.048Z,15.00
2023-02-08T22:35:24.355Z,16.00
2023-02-08T22:37:51.240Z,16.98
2023-02-08T22:40:17.606Z,15.82
2023-02-08T22:42:44.149Z,15.88
2023-02-08T22:45:10.513Z,15.85
2023-02-08T22:47:37.165Z,15.55
2023-02-08T22:50:03.773Z,16.63
2023-02-08T22:52:30.183Z,16.27
2023-02-08T22:55:07.194Z,16.05
2023-02-08T22:57:33.717Z,16.20
2023-02-08T23:00:00.329Z,15.68
2023-02-08T23:02:27.470Z,15.80
2023-02-08T23:04:54.419Z,15.80
2023-02-08T23:07:21.020Z,16.50
2023-02-08T23:09:47.455Z,16.05
2023-02-08T23:12:13.846Z,16.40
2023-02-08T23:14:40.487Z,16.15
2023-02-08T23:17:07.287Z,16.33
2023-02-08T23:19:34.359Z,16.05
2023-02-08T23:22:00.816Z,16.58
2023-02-08T23:24:27.852Z,15.63
2023-02-08T23:26:54.685Z,16.60
2023-02-08T23:29:21.106Z,16.80
2023-02-08T23:31:47.514Z,16.27
2023-02-08T23:34:14.366Z,16.13
2023-02-08T23:36:40.942Z,15.35
2023-02-08T23:39:07.425Z,14.63
2023-02-08T23:41:33.854Z,15.65
2023-02-08T23:44:00.793Z,16.08
2023-02-08T23:46:27.667Z,15.95
2023-02-08T23:48:54.155Z,15.40
2023-02-08T23:51:20.568Z,16.70
2023-02-08T23:53:47.036Z,15.82
2023-02-08T23:56:13.342Z,15.23
2023-02-08T23:58:39.851Z,16.85
